WetterOnline ( http://www.wetteronline.de )

Wetter aktuell Jößnitz

Aktuelles Wetter: Plauen (389m)

6-stündlich | Neueste Meldungen
Ortszeit Temperatur Wetter
Fr, 21.09. 8:00 17.1° C wolkenlos
Fr, 21.09. 2:00 18.5° C wolkenlos
Do, 20.09. 20:00 21.6° C wolkenlos
Do, 20.09. 14:00 27.0° C fast wolkenlos
Do, 20.09. 8:00 15.1° C leicht bewölkt
Do, 20.09. 2:00 15.5° C wolkenlos
Mi, 19.09. 20:00 20.9° C wolkenlos
Mi, 19.09. 14:00 26.3° C wolkenlos
Ortszeit Temperatur Wetter
Fr, 21.09. 13:30 26.3° C bewölkt
Fr, 21.09. 13:20 26.3° C bewölkt
Fr, 21.09. 13:10 26.5° C wolkig
Fr, 21.09. 13:00 26.3° C bedeckt
Fr, 21.09. 12:50 26.3° C bedeckt
Fr, 21.09. 12:40 26.3° C wolkig
Fr, 21.09. 12:30 25.3° C wolkig
Fr, 21.09. 12:00 25.0° C fast wolkenlos
Fr, 21.09. 11:30 24.1° C wolkig
Fr, 21.09. 11:00 24.1° C fast wolkenlos
Fr, 21.09. 10:30 23.1° C wolkenlos
Ortszeit Relative Feuchte Sichtweite
Fr, 21.09. 8:00 73% 29 km
Fr, 21.09. 2:00 72% 27 km
Do, 20.09. 20:00 56% 35 km
Do, 20.09. 14:00 40% 25 km
Do, 20.09. 8:00 88% 20 km
Do, 20.09. 2:00 84% 35 km
Mi, 19.09. 20:00 62% 40 km
Mi, 19.09. 14:00 41% 23 km
Ortszeit Relative Feuchte Sichtweite
Fr, 21.09. 13:30 39% 45 km
Fr, 21.09. 13:20 39% -
Fr, 21.09. 13:10 38% -
Fr, 21.09. 13:00 38% -
Fr, 21.09. 12:50 38% -
Fr, 21.09. 12:40 40% -
Fr, 21.09. 12:30 44% 40 km
Fr, 21.09. 12:00 46% 29 km
Fr, 21.09. 11:30 50% 30 km
Fr, 21.09. 11:00 50% 23 km
Fr, 21.09. 10:30 53% 28 km
Ortszeit Niederschlagsmenge Niederschlagsart
Fr, 21.09. 8:00 0.0 l/m2 in 12 Std. -
Fr, 21.09. 2:00 0.0 l/m2 in 6 Std. -
Do, 20.09. 20:00 0.0 l/m2 in 12 Std. -
Do, 20.09. 14:00 0.0 l/m2 in 6 Std. -
Do, 20.09. 8:00 0.0 l/m2 in 12 Std. -
Do, 20.09. 2:00 0.0 l/m2 in 6 Std. -
Mi, 19.09. 20:00 5 l/m2 in 12 Std. -
Mi, 19.09. 14:00 5 l/m2 in 6 Std. Regen
Ortszeit Niederschlagsmenge Niederschlagsart
Fr, 21.09. 13:30 0.0 l/m2 in 1 Std. -
Fr, 21.09. 13:20 keine Meldung -
Fr, 21.09. 13:10 keine Meldung -
Fr, 21.09. 13:00 0.0 l/m2 in 1 Std. -
Fr, 21.09. 12:50 keine Meldung -
Fr, 21.09. 12:40 keine Meldung -
Fr, 21.09. 12:30 0.0 l/m2 in 1 Std. -
Fr, 21.09. 12:00 0.0 l/m2 in 1 Std. -
Fr, 21.09. 11:30 0.0 l/m2 in 1 Std. -
Fr, 21.09. 11:00 0.0 l/m2 in 1 Std. -
Fr, 21.09. 10:30 0.0 l/m2 in 1 Std. -
Ortszeit Stärke Spitze Richtung
km/h Bft. km/h Grad Sektor
Fr, 21.09. 8:00 11 2 29 180° S
Fr, 21.09. 2:00 7 2 22 170° S
Do, 20.09. 20:00 6 1 33 200° S
Do, 20.09. 14:00 18 3 32 220° SW
Do, 20.09. 8:00 7 2 11 190° S
Do, 20.09. 2:00 6 1 17 200° S
Mi, 19.09. 20:00 7 2 25 190° S
Mi, 19.09. 14:00 11 2 26 180° S
Ortszeit Stärke Spitze Richtung
km/h Bft. km/h Grad Sektor
Fr, 21.09. 13:30 14 3 40 210° SW
Fr, 21.09. 13:20 14 3 - 210° SW
Fr, 21.09. 13:10 15 3 - 200° S
Fr, 21.09. 13:00 18 3 40 200° S
Fr, 21.09. 12:50 18 3 - 200° S
Fr, 21.09. 12:40 13 3 - 190° S
Fr, 21.09. 12:30 14 3 29 180° S
Fr, 21.09. 12:00 18 3 36 180° S
Fr, 21.09. 11:30 15 3 33 190° S
Fr, 21.09. 11:00 14 3 32 180° S
Fr, 21.09. 10:30 11 2 25 180° S
Ortszeit Untergrenze Bedeckung Gattung
total tief tief mittel hoch
Fr, 21.09. 8:00 - 0/8 0/8 - - -
Fr, 21.09. 2:00 - 0/8 0/8 - - -
Do, 20.09. 20:00 - 0/8 0/8 - - -
Do, 20.09. 14:00 1500 m 1/8 1/8 - - -
Do, 20.09. 8:00 1800 m 2/8 2/8 - - -
Do, 20.09. 2:00 - 0/8 0/8 - - -
Mi, 19.09. 20:00 - 0/8 0/8 - - -
Mi, 19.09. 14:00 - 0/8 0/8 - - -
Ortszeit Bedeckungsgrad in Achtel und Wolkenuntergrenze
Fr, 21.09. 13:30 7(6900m)
Fr, 21.09. 13:20 7(6900m)
Fr, 21.09. 13:10 7(7200m)
Fr, 21.09. 13:00 8(6900m)
Fr, 21.09. 12:50 8(6900m)
Fr, 21.09. 12:40 7(7200m)
Fr, 21.09. 12:30 5(7200m) 8(8100m)
Fr, 21.09. 12:00 1(8400m)
Fr, 21.09. 11:30 7(7800m) 6(9000m)
Fr, 21.09. 11:00 2(8100m)
Fr, 21.09. 10:30 keine Wolken
Ortszeit Luftdruck NN (hPa) Tendenz (hPa in 3 Std.)
Fr, 21.09. 8:00 1012 - 1,4
Fr, 21.09. 2:00 1014 - 1,5
Do, 20.09. 20:00 1016 - 0,5
Do, 20.09. 14:00 1017 - 1,6
Do, 20.09. 8:00 1020 0,0
Do, 20.09. 2:00 1020 0,0
Mi, 19.09. 20:00 1019 + 0,6
Mi, 19.09. 14:00 1018 - 1,1
Ortszeit Luftdruck NN (hPa) Tendenz (hPa in 3 Std.)
Fr, 21.09. 13:30 1007 - 1,8
Fr, 21.09. 13:20 1007 keine Meldung
Fr, 21.09. 13:10 1007 keine Meldung
Fr, 21.09. 13:00 1008 - 1,5
Fr, 21.09. 12:50 1008 keine Meldung
Fr, 21.09. 12:40 1008 keine Meldung
Fr, 21.09. 12:30 1008 - 1,5
Fr, 21.09. 12:00 1008 - 1,4
Fr, 21.09. 11:30 1009 - 1,2
Fr, 21.09. 11:00 1009 - 1,2
Fr, 21.09. 10:30 1010 - 0,9
Ortszeit Schneehöhe (cm)
Fr, 21.09. 8:00 -
Fr, 21.09. 2:00 -
Do, 20.09. 20:00 -
Do, 20.09. 14:00 -
Do, 20.09. 8:00 -
Do, 20.09. 2:00 -
Mi, 19.09. 20:00 -
Mi, 19.09. 14:00 -
Ortszeit Schneehöhe (cm)
Fr, 21.09. 13:30 -
Fr, 21.09. 13:20 -
Fr, 21.09. 13:10 -
Fr, 21.09. 13:00 -
Fr, 21.09. 12:50 -
Fr, 21.09. 12:40 -
Fr, 21.09. 12:30 -
Fr, 21.09. 12:00 -
Fr, 21.09. 11:30 -
Fr, 21.09. 11:00 -
Fr, 21.09. 10:30 -
Link zu dieser Seite / Seite empfehlen

Das Wetter in ...